Terminal Aerodrome Forecast
Issued by NWS

Home | Current Version | Previous Version | Graphics & Text | Print | Product List | Glossary On
Versions: 1 2 3 4 5 6 7 8 9 10 11 12
842
FTUS43 KFGF 251143 AAA
TAFBJI
TAF AMD
KBJI 251143Z 2512/2612 34010KT P6SM BKN012 OVC060
      TEMPO 2513/2515 SCT015
     FM251500 32013KT P6SM BKN060
     FM252000 32013KT P6SM VCSH BKN070
     FM252100 32013KT P6SM BKN070
     FM260100 33007KT P6SM SCT110
     FM261100 30006KT P6SM FEW200=

USA.gov is the U.S. government's official web portal to all federal, state and local government web resources and services.